createdAt,value
2023-03-04T00:02:14.755Z,6.40
2023-03-04T00:04:42.506Z,6.21
2023-03-04T00:07:10.256Z,5.96
2023-03-04T00:09:37.980Z,6.31
2023-03-04T00:12:07.969Z,6.55
2023-03-04T00:14:35.831Z,6.57
2023-03-04T00:17:05.483Z,6.57
2023-03-04T00:19:33.303Z,6.36
2023-03-04T00:22:01.025Z,6.67
2023-03-04T00:24:28.819Z,6.39
2023-03-04T00:26:56.594Z,6.64
2023-03-04T00:29:24.309Z,6.50
2023-03-04T00:31:52.035Z,6.23
2023-03-04T00:34:21.161Z,6.68
2023-03-04T00:36:48.948Z,6.50
2023-03-04T00:39:16.833Z,6.14
2023-03-04T00:41:44.665Z,6.59
2023-03-04T00:44:12.417Z,6.56
2023-03-04T00:46:40.207Z,6.66
2023-03-04T00:49:07.920Z,6.43
2023-03-04T00:51:37.308Z,6.47
2023-03-04T00:54:05.138Z,6.72
2023-03-04T00:56:32.882Z,6.54
2023-03-04T00:59:00.604Z,6.68
2023-03-04T01:01:28.394Z,6.67
2023-03-04T01:03:56.172Z,6.83
2023-03-04T01:06:23.900Z,6.80
2023-03-04T01:08:53.002Z,6.86
2023-03-04T01:11:20.783Z,7.08
2023-03-04T01:13:48.589Z,6.94
2023-03-04T01:16:16.715Z,7.06
2023-03-04T01:18:44.821Z,6.94
2023-03-04T01:21:12.568Z,7.13
2023-03-04T01:23:40.307Z,7.25
2023-03-04T01:26:09.422Z,7.42
2023-03-04T01:28:37.218Z,6.95
2023-03-04T01:31:05.601Z,7.46
2023-03-04T01:33:33.390Z,7.18
2023-03-04T01:36:01.166Z,7.23
2023-03-04T01:38:28.983Z,7.25
2023-03-04T01:40:56.723Z,7.19
2023-03-04T01:43:27.885Z,7.28
2023-03-04T01:45:57.180Z,7.33
2023-03-04T01:48:28.714Z,7.11
2023-03-04T01:50:56.609Z,7.17
2023-03-04T01:53:27.764Z,7.42
2023-03-04T01:55:57.865Z,7.41
2023-03-04T01:58:29.540Z,7.40
2023-03-04T02:00:57.927Z,7.32
2023-03-04T02:03:26.174Z,7.51
2023-03-04T02:05:55.190Z,7.48
2023-03-04T02:08:25.547Z,7.38
2023-03-04T02:10:53.841Z,7.52
2023-03-04T02:13:21.736Z,7.55
2023-03-04T02:15:50.927Z,7.35
2023-03-04T02:18:20.682Z,7.03
2023-03-04T02:21:00.091Z,7.42
2023-03-04T02:23:34.402Z,7.13
2023-03-04T02:26:25.587Z,7.47
2023-03-04T02:28:54.930Z,7.53
2023-03-04T02:31:26.536Z,7.57
2023-03-04T02:33:56.473Z,7.36
2023-03-04T02:36:24.633Z,7.58
2023-03-04T02:38:53.434Z,7.19
2023-03-04T02:41:25.584Z,7.45
2023-03-04T02:43:56.848Z,7.52
2023-03-04T02:46:25.044Z,7.45
2023-03-04T02:48:53.691Z,7.85
2023-03-04T02:51:21.401Z,7.52
2023-03-04T02:53:49.165Z,7.88
2023-03-04T02:56:16.911Z,7.93
2023-03-04T02:58:46.011Z,7.68
2023-03-04T03:01:14.010Z,7.72
2023-03-04T03:03:41.697Z,7.88
2023-03-04T03:06:09.898Z,7.49
2023-03-04T03:08:37.616Z,8.17
2023-03-04T03:11:05.634Z,7.84
2023-03-04T03:13:33.398Z,7.70
2023-03-04T03:16:02.558Z,8.15
2023-03-04T03:18:30.304Z,7.98
2023-03-04T03:20:58.032Z,7.73
2023-03-04T03:23:25.749Z,7.58
2023-03-04T03:25:53.475Z,7.58
2023-03-04T03:28:21.210Z,7.24
2023-03-04T03:30:48.925Z,7.61
2023-03-04T03:33:18.011Z,7.64
2023-03-04T03:35:45.818Z,7.78
2023-03-04T03:38:13.611Z,7.80
2023-03-04T03:40:41.317Z,7.94
2023-03-04T03:43:09.005Z,7.65
2023-03-04T03:45:36.857Z,7.72
2023-03-04T03:48:05.064Z,7.81
2023-03-04T03:50:34.151Z,7.95
2023-03-04T03:53:02.002Z,7.84
2023-03-04T03:55:29.751Z,7.76
2023-03-04T03:57:57.521Z,7.92
2023-03-04T04:00:25.504Z,7.62
2023-03-04T04:02:54.475Z,7.74
2023-03-04T04:05:22.332Z,7.65
2023-03-04T04:07:53.773Z,7.74
2023-03-04T04:10:22.193Z,7.77
2023-03-04T04:12:49.948Z,7.89
2023-03-04T04:15:17.759Z,7.32
2023-03-04T04:17:45.478Z,7.70
2023-03-04T04:20:13.407Z,8.10
2023-03-04T04:22:41.222Z,7.74
2023-03-04T04:25:11.456Z,7.57
2023-03-04T04:27:39.213Z,7.30
2023-03-04T04:30:08.191Z,7.46
2023-03-04T04:32:36.051Z,7.41
2023-03-04T04:35:03.892Z,7.55
2023-03-04T04:37:32.560Z,7.55
2023-03-04T04:40:00.314Z,7.45
2023-03-04T04:42:29.566Z,7.56
2023-03-04T04:44:57.827Z,7.20
2023-03-04T04:47:25.632Z,7.36
2023-03-04T04:49:53.427Z,6.98
2023-03-04T04:52:21.174Z,7.23
2023-03-04T04:54:48.893Z,7.56
2023-03-04T04:57:16.660Z,7.48
2023-03-04T04:59:45.738Z,7.23
2023-03-04T05:02:13.615Z,7.45
2023-03-04T05:04:41.331Z,7.47
2023-03-04T05:07:09.171Z,7.00
2023-03-04T05:09:36.941Z,6.85
2023-03-04T05:12:05.124Z,6.86
2023-03-04T05:14:32.825Z,6.70
2023-03-04T05:17:01.919Z,6.84
2023-03-04T05:19:29.666Z,6.66
2023-03-04T05:21:57.507Z,6.85
2023-03-04T05:24:25.554Z,6.46
2023-03-04T05:26:53.323Z,6.71
2023-03-04T05:29:21.392Z,6.68
2023-03-04T05:31:49.120Z,6.60
2023-03-04T05:34:18.351Z,6.20
2023-03-04T05:36:46.116Z,6.43
2023-03-04T05:39:13.829Z,6.24
2023-03-04T05:41:41.528Z,6.50
2023-03-04T05:44:09.633Z,6.60
2023-03-04T05:46:37.435Z,6.32
2023-03-04T05:49:05.240Z,6.37
2023-03-04T05:51:34.359Z,6.22
2023-03-04T05:54:02.066Z,6.57
2023-03-04T05:56:30.517Z,6.52
2023-03-04T05:58:59.140Z,6.51
2023-03-04T06:01:27.444Z,6.56
2023-03-04T06:03:55.367Z,6.70
2023-03-04T06:06:23.177Z,6.68
2023-03-04T06:08:52.331Z,7.05
2023-03-04T06:11:20.086Z,6.84
2023-03-04T06:13:47.855Z,6.68
2023-03-04T06:16:15.663Z,7.00
2023-03-04T06:18:43.416Z,6.82
2023-03-04T06:21:11.156Z,6.71
2023-03-04T06:23:39.020Z,7.08
2023-03-04T06:26:10.100Z,6.73
2023-03-04T06:28:37.801Z,6.71
2023-03-04T06:31:05.852Z,6.84
2023-03-04T06:33:33.884Z,6.47
2023-03-04T06:36:01.624Z,6.61
2023-03-04T06:38:29.418Z,6.71
2023-03-04T06:40:57.635Z,6.84
2023-03-04T06:43:26.870Z,6.87
2023-03-04T06:45:54.583Z,6.44
2023-03-04T06:48:22.282Z,6.49
2023-03-04T06:50:49.989Z,7.08
2023-03-04T06:53:17.701Z,6.73
2023-03-04T06:55:45.440Z,6.96
2023-03-04T06:58:13.161Z,6.71
2023-03-04T07:00:42.358Z,6.91
2023-03-04T07:03:10.490Z,7.28
2023-03-04T07:05:38.216Z,6.88
2023-03-04T07:08:07.064Z,7.16
2023-03-04T07:10:34.882Z,6.64
2023-03-04T07:13:02.713Z,7.10
2023-03-04T07:15:30.708Z,6.72
2023-03-04T07:17:59.848Z,6.35
2023-03-04T07:20:29.131Z,6.95
2023-03-04T07:22:58.426Z,7.06
2023-03-04T07:25:26.172Z,6.76
2023-03-04T07:27:53.886Z,7.11
2023-03-04T07:30:21.803Z,7.04
2023-03-04T07:32:49.619Z,7.08
2023-03-04T07:35:19.200Z,7.20
2023-03-04T07:37:46.958Z,7.21
2023-03-04T07:40:14.697Z,7.04
2023-03-04T07:42:43.020Z,6.92
2023-03-04T07:45:11.926Z,7.06
2023-03-04T07:47:41.436Z,7.28
2023-03-04T07:50:10.644Z,6.75
2023-03-04T07:52:52.147Z,7.33
2023-03-04T07:55:20.701Z,7.56
2023-03-04T07:57:49.102Z,7.57
2023-03-04T08:00:18.253Z,7.30
2023-03-04T08:02:46.072Z,6.88
2023-03-04T08:05:14.084Z,7.21
2023-03-04T08:07:43.263Z,7.31
2023-03-04T08:10:12.605Z,7.02
2023-03-04T08:12:40.349Z,7.00
2023-03-04T08:15:09.415Z,7.49
2023-03-04T08:17:37.171Z,7.41
2023-03-04T08:20:05.361Z,7.42
2023-03-04T08:22:33.129Z,6.85
2023-03-04T08:25:02.251Z,7.27
2023-03-04T08:27:30.134Z,6.61
2023-03-04T08:29:57.887Z,6.99
2023-03-04T08:32:25.846Z,7.04
2023-03-04T08:34:56.255Z,7.21
2023-03-04T08:37:24.035Z,7.60
2023-03-04T08:39:51.773Z,7.12
2023-03-04T08:42:20.874Z,6.57
2023-03-04T08:44:48.625Z,7.06
2023-03-04T08:47:16.347Z,6.66
2023-03-04T08:49:44.077Z,7.07
2023-03-04T08:52:11.836Z,7.29
2023-03-04T08:54:39.551Z,7.57
2023-03-04T08:57:07.880Z,7.27
2023-03-04T08:59:38.390Z,6.96
2023-03-04T09:02:06.512Z,6.74
2023-03-04T09:04:34.351Z,6.66
2023-03-04T09:07:02.089Z,6.50
2023-03-04T09:09:29.892Z,6.94
2023-03-04T09:11:58.697Z,6.78
2023-03-04T09:14:26.460Z,6.57
2023-03-04T09:16:55.549Z,6.90
2023-03-04T09:19:24.242Z,7.29
2023-03-04T09:21:51.988Z,6.57
2023-03-04T09:24:19.752Z,7.02
2023-03-04T09:26:51.574Z,7.03
2023-03-04T09:29:19.341Z,7.46
2023-03-04T09:31:47.158Z,7.58
2023-03-04T09:34:20.939Z,7.64
2023-03-04T09:36:48.644Z,7.04
2023-03-04T09:39:16.391Z,8.00
2023-03-04T09:41:47.024Z,7.68
2023-03-04T09:44:22.746Z,7.72
2023-03-04T09:46:52.798Z,7.72
2023-03-04T09:49:23.207Z,7.29
2023-03-04T09:52:00.130Z,7.96
2023-03-04T09:54:58.161Z,7.90
2023-03-04T09:57:30.980Z,7.56
2023-03-04T10:00:12.504Z,7.87
2023-03-04T10:02:58.986Z,8.23
2023-03-04T10:05:31.444Z,7.99
2023-03-04T10:08:01.785Z,8.03
2023-03-04T10:10:33.774Z,8.16
2023-03-04T10:13:04.100Z,7.88
2023-03-04T10:15:37.619Z,8.48
2023-03-04T10:18:17.471Z,8.62
2023-03-04T10:20:55.008Z,9.18
2023-03-04T10:23:26.544Z,8.61
2023-03-04T10:25:55.404Z,8.78
2023-03-04T10:28:27.004Z,9.01
2023-03-04T10:31:00.970Z,9.24
2023-03-04T10:33:31.614Z,8.52
2023-03-04T10:36:04.952Z,9.24
2023-03-04T10:38:35.355Z,9.24
2023-03-04T10:41:12.946Z,8.29
2023-03-04T10:43:45.039Z,9.59
2023-03-04T10:46:18.232Z,9.50
2023-03-04T10:48:46.557Z,9.34
2023-03-04T10:51:21.131Z,9.86
2023-03-04T10:53:52.351Z,9.95
2023-03-04T10:56:35.568Z,9.95
2023-03-04T10:59:31.283Z,9.86
2023-03-04T11:01:59.881Z,9.86
2023-03-04T11:04:29.627Z,9.32
2023-03-04T11:06:58.738Z,9.28
2023-03-04T11:09:28.281Z,8.71
2023-03-04T11:11:59.878Z,8.71
2023-03-04T11:14:30.227Z,8.51
2023-03-04T11:16:59.884Z,8.50
2023-03-04T11:19:33.994Z,8.27
2023-03-04T11:22:04.342Z,8.00
2023-03-04T11:24:35.414Z,9.65
2023-03-04T11:27:06.864Z,9.98
2023-03-04T11:29:39.452Z,8.84
2023-03-04T11:32:12.090Z,9.13
2023-03-04T11:34:45.111Z,10.28
2023-03-04T11:37:22.826Z,9.68
2023-03-04T11:39:53.973Z,8.84
2023-03-04T11:42:33.429Z,9.65
2023-03-04T11:45:02.085Z,8.76
2023-03-04T11:47:57.750Z,9.16
2023-03-04T11:50:32.727Z,9.12
2023-03-04T11:53:32.535Z,9.39
2023-03-04T11:56:23.436Z,9.48
2023-03-04T11:59:14.707Z,9.59
2023-03-04T12:01:54.676Z,9.20
2023-03-04T12:04:44.421Z,10.62
2023-03-04T12:07:29.216Z,11.10
2023-03-04T12:10:07.384Z,9.95
2023-03-04T12:12:49.559Z,10.19
2023-03-04T12:15:22.214Z,10.03
2023-03-04T12:18:20.874Z,9.06
2023-03-04T12:21:02.142Z,9.51
2023-03-04T12:24:08.292Z,9.07
2023-03-04T12:26:41.658Z,9.25
2023-03-04T12:29:18.173Z,8.35
2023-03-04T12:31:47.479Z,8.52
2023-03-04T12:34:33.060Z,8.97
2023-03-04T12:37:21.852Z,9.11
2023-03-04T12:40:06.929Z,9.37
2023-03-04T12:42:51.167Z,9.52
2023-03-04T12:45:23.387Z,12.38
2023-03-04T12:48:01.382Z,12.88
2023-03-04T12:50:42.844Z,13.26
2023-03-04T12:53:22.061Z,12.32
2023-03-04T12:55:51.996Z,11.25
2023-03-04T12:58:24.886Z,10.65
2023-03-04T13:01:02.960Z,10.43
2023-03-04T13:03:40.131Z,10.53
2023-03-04T13:06:16.104Z,9.79
2023-03-04T13:08:58.274Z,9.82
2023-03-04T13:11:54.822Z,9.14
2023-03-04T13:14:32.312Z,9.85
2023-03-04T13:17:02.189Z,11.80
2023-03-04T13:19:57.119Z,12.20
2023-03-04T13:22:30.131Z,12.97
2023-03-04T13:24:58.958Z,12.24
2023-03-04T13:27:46.466Z,12.73
2023-03-04T13:30:42.192Z,11.73
2023-03-04T13:33:46.643Z,12.89
2023-03-04T13:36:34.045Z,11.28
2023-03-04T13:39:03.789Z,12.58
2023-03-04T13:41:48.197Z,13.30
2023-03-04T13:45:05.222Z,13.28
2023-03-04T13:47:44.396Z,12.43
2023-03-04T13:50:30.011Z,11.80
2023-03-04T13:53:02.916Z,10.84
2023-03-04T13:55:37.992Z,11.90
2023-03-04T13:58:20.096Z,11.56
2023-03-04T14:00:51.652Z,12.35
2023-03-04T14:03:29.130Z,12.16
2023-03-04T14:06:18.757Z,11.60
2023-03-04T14:08:47.493Z,11.84
2023-03-04T14:11:17.268Z,11.60
2023-03-04T14:13:45.573Z,12.01
2023-03-04T14:16:13.370Z,12.25
2023-03-04T14:18:43.072Z,11.93
2023-03-04T14:21:15.584Z,12.36
2023-03-04T14:23:44.536Z,12.79
2023-03-04T14:26:15.473Z,12.99
2023-03-04T14:28:45.169Z,13.04
2023-03-04T14:31:18.330Z,13.50
2023-03-04T14:33:49.385Z,13.53
2023-03-04T14:36:20.348Z,14.25
2023-03-04T14:38:54.373Z,12.44
2023-03-04T14:41:27.036Z,13.50
2023-03-04T14:44:00.663Z,13.74
2023-03-04T14:46:33.192Z,12.97
2023-03-04T14:49:03.147Z,10.91
2023-03-04T14:51:41.563Z,10.66
2023-03-04T14:54:28.298Z,12.56
2023-03-04T14:56:56.646Z,12.91
2023-03-04T14:59:32.799Z,11.97
2023-03-04T15:02:19.366Z,11.53
2023-03-04T15:04:51.175Z,11.38
2023-03-04T15:07:22.669Z,11.27
2023-03-04T15:09:53.470Z,11.06
2023-03-04T15:12:27.605Z,11.98
2023-03-04T15:14:56.660Z,11.38
2023-03-04T15:17:27.050Z,12.20
2023-03-04T15:20:05.017Z,12.28
2023-03-04T15:22:33.360Z,11.98
2023-03-04T15:25:01.233Z,12.11
2023-03-04T15:27:30.484Z,11.36
2023-03-04T15:30:02.006Z,11.42
2023-03-04T15:32:30.840Z,11.60
2023-03-04T15:34:58.633Z,10.59
2023-03-04T15:37:30.429Z,10.94
2023-03-04T15:39:59.242Z,11.43
2023-03-04T15:42:28.175Z,11.64
2023-03-04T15:44:55.902Z,11.10
2023-03-04T15:47:23.607Z,10.47
2023-03-04T15:49:52.602Z,9.96
2023-03-04T15:52:22.294Z,9.57
2023-03-04T15:54:51.459Z,9.82
2023-03-04T15:57:22.461Z,10.32
2023-03-04T15:59:50.332Z,8.91
2023-03-04T16:02:22.377Z,8.54
2023-03-04T16:04:50.110Z,8.77
2023-03-04T16:07:19.778Z,8.47
2023-03-04T16:09:51.110Z,7.92
2023-03-04T16:12:20.263Z,8.32
2023-03-04T16:14:49.275Z,8.49
2023-03-04T16:17:16.987Z,8.32
2023-03-04T16:19:44.711Z,7.87
2023-03-04T16:22:14.577Z,7.79
2023-03-04T16:24:43.296Z,8.42
2023-03-04T16:27:12.852Z,8.35
2023-03-04T16:29:42.154Z,8.87
2023-03-04T16:32:10.539Z,8.72
2023-03-04T16:34:38.300Z,8.51
2023-03-04T16:37:15.958Z,7.44
2023-03-04T16:39:46.186Z,8.04
2023-03-04T16:42:18.894Z,8.12
2023-03-04T16:44:48.026Z,8.21
2023-03-04T16:47:15.734Z,8.10
2023-03-04T16:49:43.584Z,8.01
2023-03-04T16:52:21.583Z,7.41
2023-03-04T16:54:49.830Z,7.36
2023-03-04T16:57:17.705Z,7.62
2023-03-04T16:59:45.997Z,6.83
2023-03-04T17:02:20.158Z,7.37
2023-03-04T17:04:49.557Z,7.43
2023-03-04T17:07:17.958Z,7.50
2023-03-04T17:09:46.215Z,7.50
2023-03-04T17:12:13.985Z,7.29
2023-03-04T17:14:41.788Z,7.87
2023-03-04T17:17:09.538Z,6.96
2023-03-04T17:19:38.691Z,7.57
2023-03-04T17:22:06.423Z,7.86
2023-03-04T17:24:34.173Z,7.55
2023-03-04T17:27:01.895Z,7.27
2023-03-04T17:29:29.633Z,7.14
2023-03-04T17:31:57.346Z,7.57
2023-03-04T17:34:25.815Z,7.52
2023-03-04T17:36:54.908Z,7.25
2023-03-04T17:39:22.669Z,7.25
2023-03-04T17:41:51.294Z,7.55
2023-03-04T17:44:19.789Z,7.35
2023-03-04T17:46:48.835Z,7.13
2023-03-04T17:49:17.357Z,7.48
2023-03-04T17:51:45.446Z,7.56
2023-03-04T17:54:14.533Z,7.40
2023-03-04T17:56:44.399Z,7.42
2023-03-04T17:59:15.493Z,7.45
2023-03-04T18:01:45.001Z,7.30
2023-03-04T18:04:13.629Z,7.33
2023-03-04T18:06:41.939Z,7.40
2023-03-04T18:09:09.855Z,7.76
2023-03-04T18:11:45.425Z,7.89
2023-03-04T18:14:14.592Z,7.93
2023-03-04T18:16:42.829Z,7.41
2023-03-04T18:19:13.401Z,7.44
2023-03-04T18:21:41.164Z,7.53
2023-03-04T18:24:11.923Z,7.37
2023-03-04T18:26:42.993Z,7.39
2023-03-04T18:29:11.142Z,7.78
2023-03-04T18:31:38.899Z,7.57
2023-03-04T18:34:06.915Z,7.58
2023-03-04T18:36:35.038Z,7.90
2023-03-04T18:39:05.245Z,7.74
2023-03-04T18:41:33.025Z,8.16
2023-03-04T18:44:02.110Z,7.59
2023-03-04T18:46:32.995Z,7.73
2023-03-04T18:49:04.140Z,7.95
2023-03-04T18:51:32.064Z,7.87
2023-03-04T18:53:59.832Z,7.99
2023-03-04T18:56:34.530Z,8.22
2023-03-04T18:59:03.641Z,8.43
2023-03-04T19:01:31.566Z,8.22
2023-03-04T19:04:04.595Z,7.93
2023-03-04T19:06:32.861Z,7.67
2023-03-04T19:09:00.709Z,7.80
2023-03-04T19:11:29.909Z,7.70
2023-03-04T19:13:57.606Z,7.67
2023-03-04T19:16:26.808Z,7.37
2023-03-04T19:18:54.582Z,8.10
2023-03-04T19:21:22.338Z,8.11
2023-03-04T19:23:50.075Z,8.13
2023-03-04T19:26:18.066Z,7.78
2023-03-04T19:28:45.803Z,8.01
2023-03-04T19:31:13.956Z,7.39
2023-03-04T19:33:43.029Z,7.50
2023-03-04T19:36:11.251Z,8.00
2023-03-04T19:38:39.097Z,7.74
2023-03-04T19:41:11.320Z,7.99
2023-03-04T19:43:39.559Z,7.79
2023-03-04T19:46:08.662Z,7.83
2023-03-04T19:48:37.979Z,8.02
2023-03-04T19:51:14.759Z,7.47
2023-03-04T19:53:42.800Z,7.11
2023-03-04T19:56:10.592Z,7.58
2023-03-04T19:58:38.415Z,7.78
2023-03-04T20:01:06.628Z,7.79
2023-03-04T20:03:34.420Z,7.86
2023-03-04T20:06:08.495Z,8.13
2023-03-04T20:08:38.431Z,7.69
2023-03-04T20:11:08.539Z,7.24
2023-03-04T20:13:36.244Z,7.27
2023-03-04T20:16:08.383Z,7.62
2023-03-04T20:18:36.111Z,7.39
2023-03-04T20:21:04.041Z,7.54
2023-03-04T20:23:33.612Z,7.50
2023-03-04T20:26:01.559Z,7.60
2023-03-04T20:28:29.629Z,7.65
2023-03-04T20:31:11.396Z,7.26
2023-03-04T20:33:39.237Z,7.47
2023-03-04T20:36:07.115Z,6.92
2023-03-04T20:38:36.179Z,6.81
2023-03-04T20:41:05.475Z,6.80
2023-03-04T20:43:33.333Z,6.62
2023-03-04T20:46:41.845Z,6.77
2023-03-04T20:49:12.112Z,7.14
2023-03-04T20:51:40.195Z,7.42
2023-03-04T20:54:09.770Z,6.73
2023-03-04T20:56:38.462Z,6.60
2023-03-04T20:59:08.798Z,6.90
2023-03-04T21:01:37.051Z,6.68
2023-03-04T21:04:05.538Z,6.69
2023-03-04T21:06:33.759Z,6.54
2023-03-04T21:09:03.717Z,6.20
2023-03-04T21:11:39.887Z,6.34
2023-03-04T21:14:08.841Z,6.20
2023-03-04T21:16:36.631Z,6.53
2023-03-04T21:19:04.728Z,6.34
2023-03-04T21:21:32.448Z,6.54
2023-03-04T21:24:00.586Z,5.99
2023-03-04T21:26:28.370Z,5.82
2023-03-04T21:28:57.513Z,5.90
2023-03-04T21:31:27.489Z,6.22
2023-03-04T21:33:58.631Z,6.19
2023-03-04T21:36:26.545Z,6.35
2023-03-04T21:38:54.867Z,6.30
2023-03-04T21:41:24.534Z,6.33
2023-03-04T21:43:52.655Z,6.45
2023-03-04T21:46:23.345Z,6.65
2023-03-04T21:48:51.144Z,6.17
2023-03-04T21:51:18.879Z,6.02
2023-03-04T21:53:46.633Z,5.78
2023-03-04T21:56:15.035Z,5.50
2023-03-04T21:58:42.888Z,6.03
2023-03-04T22:01:11.756Z,6.34
2023-03-04T22:03:44.036Z,5.44
2023-03-04T22:06:13.383Z,5.50
2023-03-04T22:08:41.969Z,5.36
2023-03-04T22:11:12.082Z,5.29
2023-03-04T22:13:39.779Z,5.60
2023-03-04T22:16:08.456Z,5.81
2023-03-04T22:18:39.832Z,5.27
2023-03-04T22:21:10.577Z,5.61
2023-03-04T22:23:38.994Z,5.98
2023-03-04T22:26:08.592Z,5.86
2023-03-04T22:28:36.517Z,5.63
2023-03-04T22:31:04.668Z,5.41
2023-03-04T22:33:37.144Z,5.77
2023-03-04T22:36:06.984Z,5.58
2023-03-04T22:38:37.198Z,5.75
2023-03-04T22:41:05.609Z,5.30
2023-03-04T22:43:33.325Z,5.54
2023-03-04T22:46:01.796Z,5.83
2023-03-04T22:48:29.551Z,5.71
2023-03-04T22:50:57.247Z,5.99
2023-03-04T22:53:26.224Z,5.56
2023-03-04T22:55:59.478Z,5.56
2023-03-04T22:58:27.217Z,5.56
2023-03-04T23:00:54.926Z,5.50
2023-03-04T23:03:22.694Z,5.22
2023-03-04T23:05:50.516Z,5.36
2023-03-04T23:08:18.639Z,5.93
2023-03-04T23:10:46.345Z,5.69
2023-03-04T23:13:15.437Z,5.89
2023-03-04T23:15:43.117Z,5.75
2023-03-04T23:18:10.855Z,5.88
2023-03-04T23:20:41.959Z,6.05
2023-03-04T23:23:09.705Z,5.63
2023-03-04T23:25:37.801Z,6.06
2023-03-04T23:28:06.193Z,6.06
2023-03-04T23:30:35.686Z,6.09
2023-03-04T23:33:03.642Z,5.99
2023-03-04T23:35:31.393Z,5.37
2023-03-04T23:37:59.106Z,5.86
2023-03-04T23:40:26.960Z,6.04
2023-03-04T23:42:54.704Z,5.74
2023-03-04T23:45:22.410Z,5.58
2023-03-04T23:47:51.553Z,5.33
2023-03-04T23:50:19.468Z,5.15
2023-03-04T23:52:47.420Z,5.47
2023-03-04T23:55:17.389Z,5.67
2023-03-04T23:57:45.846Z,5.51
